createdAt,value
2023-01-17T12:32:00.553Z,0.90
2023-01-17T12:35:55.681Z,1.02
2023-01-17T12:39:41.773Z,1.10
2023-01-17T12:43:39.530Z,1.45
2023-01-17T12:47:24.544Z,1.40
2023-01-17T12:51:15.414Z,1.48
2023-01-17T12:55:05.910Z,1.33
2023-01-17T12:58:53.753Z,1.15
2023-01-17T13:02:37.926Z,1.20
2023-01-17T13:06:31.808Z,1.17
2023-01-17T13:10:30.996Z,1.38
2023-01-17T13:14:13.799Z,1.38
2023-01-17T13:18:09.658Z,1.02
2023-01-17T13:21:57.025Z,1.30
2023-01-17T13:25:48.666Z,1.70
2023-01-17T13:29:49.101Z,3.92
2023-01-17T13:34:15.182Z,1.55
2023-01-17T13:38:18.890Z,1.35
2023-01-17T13:42:21.319Z,2.90
2023-01-17T13:46:07.176Z,0.98
2023-01-17T13:49:56.544Z,1.10
2023-01-17T13:53:48.706Z,1.35
2023-01-17T13:57:43.680Z,1.48
2023-01-17T14:01:25.828Z,1.00
2023-01-17T14:05:17.576Z,1.33
2023-01-17T14:09:08.763Z,1.20
2023-01-17T14:12:53.077Z,1.45
2023-01-17T14:16:39.171Z,1.50
2023-01-17T14:20:26.347Z,1.95
2023-01-17T14:24:13.029Z,1.15
2023-01-17T14:28:02.687Z,1.35
2023-01-17T14:31:45.093Z,1.33
2023-01-17T14:35:32.569Z,1.42
2023-01-17T14:39:29.217Z,1.30
2023-01-17T14:43:13.917Z,1.45
2023-01-17T14:46:57.130Z,1.35
2023-01-17T14:50:41.370Z,4.22
2023-01-17T14:54:23.850Z,1.10
2023-01-17T14:58:05.834Z,1.08
2023-01-17T15:02:06.750Z,1.02
2023-01-17T15:05:54.863Z,1.20
2023-01-17T15:09:37.944Z,1.10
2023-01-17T15:13:42.722Z,1.60
2023-01-17T15:17:27.769Z,1.23
2023-01-17T15:21:17.190Z,1.75
2023-01-17T15:25:02.532Z,1.20
2023-01-17T15:28:49.885Z,1.40
2023-01-17T15:32:34.356Z,1.30
2023-01-17T15:36:33.107Z,1.20
2023-01-17T15:40:19.880Z,1.40
2023-01-17T15:44:07.208Z,1.38
2023-01-17T15:47:49.244Z,1.45
2023-01-17T15:51:34.287Z,0.95
2023-01-17T15:55:23.425Z,1.27
2023-01-17T15:59:42.141Z,1.83
2023-01-17T16:03:29.985Z,1.30
2023-01-17T16:07:27.594Z,1.88
2023-01-17T16:11:11.723Z,2.65
2023-01-17T16:15:10.820Z,2.33
2023-01-17T16:19:00.492Z,2.55
2023-01-17T16:22:47.604Z,2.50
2023-01-17T16:26:29.727Z,1.85
2023-01-17T16:30:17.569Z,2.00
2023-01-17T16:33:59.558Z,2.80
2023-01-17T16:37:43.604Z,2.60
2023-01-17T16:41:25.714Z,2.70
2023-01-17T16:45:43.436Z,3.22
2023-01-17T16:49:25.410Z,2.72
2023-01-17T16:53:07.383Z,2.83
2023-01-17T16:56:49.387Z,2.78
2023-01-17T17:00:31.373Z,2.80
2023-01-17T17:04:15.576Z,3.53
2023-01-17T17:08:00.099Z,3.17
2023-01-17T17:11:42.912Z,3.70
2023-01-17T17:15:26.927Z,3.67
2023-01-17T17:19:09.990Z,4.00
2023-01-17T17:22:52.235Z,4.07
2023-01-17T17:26:39.558Z,4.03
2023-01-17T17:30:42.568Z,3.70
2023-01-17T17:34:27.588Z,3.80
2023-01-17T17:38:09.601Z,3.45
2023-01-17T17:41:59.670Z,9.50
2023-01-17T17:45:41.615Z,3.60
2023-01-17T17:49:23.558Z,4.28
2023-01-17T17:53:08.489Z,5.35
2023-01-17T17:56:50.407Z,5.80
2023-01-17T18:00:38.634Z,5.25
2023-01-17T18:04:21.696Z,3.75
2023-01-17T18:08:03.796Z,4.85
2023-01-17T18:11:48.014Z,4.80
2023-01-17T18:15:35.046Z,5.63
2023-01-17T18:19:22.972Z,5.60
2023-01-17T18:23:04.910Z,10.18
2023-01-17T18:27:06.447Z,8.20
2023-01-17T18:31:12.087Z,10.07
2023-01-17T18:34:56.927Z,7.85
2023-01-17T18:39:33.460Z,13.63
2023-01-17T18:43:27.356Z,7.38
2023-01-17T18:47:13.005Z,7.05
2023-01-17T18:50:59.914Z,6.30
2023-01-17T18:54:41.971Z,5.53
2023-01-17T18:58:25.127Z,6.85
2023-01-17T19:02:11.151Z,6.50
2023-01-17T19:05:55.344Z,7.10
2023-01-17T19:09:39.442Z,6.40
2023-01-17T19:13:21.399Z,5.47
2023-01-17T19:17:05.708Z,8.43
2023-01-17T19:20:47.692Z,7.45
2023-01-17T19:24:29.571Z,7.10
2023-01-17T19:28:11.527Z,9.68
2023-01-17T19:31:53.578Z,8.95
2023-01-17T19:35:37.442Z,8.07
2023-01-17T19:39:26.068Z,7.80
2023-01-17T19:43:11.335Z,8.52
2023-01-17T19:46:56.395Z,8.10
2023-01-17T19:50:38.321Z,7.93
2023-01-17T19:54:23.269Z,8.55
2023-01-17T19:58:05.270Z,8.93
2023-01-17T20:01:47.902Z,7.57
2023-01-17T20:05:35.563Z,8.23
2023-01-17T20:09:17.469Z,7.78
2023-01-17T20:13:01.955Z,8.70
2023-01-17T20:16:47.464Z,8.43
2023-01-17T20:20:32.532Z,9.25
2023-01-17T20:24:16.276Z,9.20
2023-01-17T20:27:58.561Z,9.20
2023-01-17T20:31:44.693Z,9.13
2023-01-17T20:35:29.307Z,8.45
2023-01-17T20:39:14.246Z,9.38
2023-01-17T20:42:56.199Z,9.60
2023-01-17T20:46:41.029Z,9.75
2023-01-17T20:50:27.785Z,10.10
2023-01-17T20:54:14.220Z,9.63
2023-01-17T20:57:57.545Z,15.93
2023-01-17T21:01:43.660Z,10.98
2023-01-17T21:05:25.791Z,9.30
2023-01-17T21:09:10.932Z,8.68
2023-01-17T21:12:53.575Z,9.23
2023-01-17T21:16:35.706Z,22.13
2023-01-17T21:20:17.805Z,10.68
2023-01-17T21:24:01.999Z,9.57
2023-01-17T21:27:45.553Z,9.43
2023-01-17T21:31:33.549Z,8.27
2023-01-17T21:35:20.320Z,9.43
2023-01-17T21:39:06.604Z,8.27
2023-01-17T21:42:55.749Z,8.65
2023-01-17T21:46:43.249Z,11.02
2023-01-17T21:50:33.386Z,9.93
2023-01-17T21:54:17.864Z,9.95
2023-01-17T21:58:18.387Z,10.98
2023-01-17T22:02:01.699Z,20.55
2023-01-17T22:05:46.200Z,10.77
2023-01-17T22:09:32.556Z,10.73
2023-01-17T22:13:16.709Z,11.73
2023-01-17T22:16:58.800Z,10.93
2023-01-17T22:20:41.896Z,10.05
2023-01-17T22:24:26.017Z,10.00
2023-01-17T22:28:08.079Z,9.77
2023-01-17T22:31:52.426Z,10.10
2023-01-17T22:35:34.355Z,10.45
2023-01-17T22:39:18.532Z,11.88
2023-01-17T22:43:00.529Z,10.98
2023-01-17T22:46:42.688Z,10.80
2023-01-17T22:50:24.657Z,12.18
2023-01-17T22:54:06.659Z,10.45
2023-01-17T22:57:48.942Z,10.93
2023-01-17T23:01:32.889Z,11.75
2023-01-17T23:05:14.804Z,11.80
2023-01-17T23:09:01.396Z,12.68
2023-01-17T23:12:43.309Z,12.25
2023-01-17T23:16:43.717Z,10.38
2023-01-17T23:20:25.668Z,11.50
2023-01-17T23:24:10.217Z,12.63
2023-01-17T23:28:10.698Z,11.77
2023-01-17T23:31:54.959Z,12.55
2023-01-17T23:35:42.217Z,12.68
2023-01-17T23:39:24.661Z,12.10
2023-01-17T23:43:25.092Z,13.05
2023-01-17T23:47:07.077Z,11.52
2023-01-17T23:50:49.100Z,11.73
2023-01-17T23:54:35.174Z,11.15
2023-01-17T23:58:17.418Z,11.77
